Arcata, CA

10:17 PM PDT on August 28, 2014 (GMT -0700)
Walker Point | Change Station
CLOSE
Current Station
Personal Weather Station
Location: Bayside, CA
Elevation: 72 ft
Nearby Weather Stations

Elev 72 ft 40.81 °N, 124.09 °W | Updated 2 minutes ago

Fog
Fog
59.7 °F
Feels Like 59.7 °F
N
0.0
Wind Variable Wind from SE
Gusts 0.0 mph

Today
High -- | Low -- °F
--% Chance of Precip.
Yesterday
High -- | Low -- °F
Precip. -- in
6:39 AM 7:54 PM
Waxing Crescent, 12% visible
Pressure 30.05 in
Visibility 0.5 miles
Clouds
Dew Point 46 °F
Humidity 61%
Rainfall 0.00 in
Snow Depth Not available.
UV Not available.
Pollen 9.20 out of 12
Air Quality Not available.
Flu Activity Not available.
SPECI KACV 290510Z AUTO 15004KT 1/2SM R32/2000V3500FT FG VV002 13/12 A3005 RMK AO2 T01280122 $

More Conditions Fewer Conditions

Pressure 30.05 in
Visibility 0.5 miles
Clouds
Dew Point 46 °F
Humidity 61%
Rainfall 0.00 in
Snow Depth Not available.
UV Not available.
Pollen 9.20 out of 12
Air Quality Not available.
Flu Activity Not available.
SPECI KACV 290510Z AUTO 15004KT 1/2SM R32/2000V3500FT FG VV002 13/12 A3005 RMK AO2 T01280122 $

More Conditions Fewer Conditions

10-Day Weather Forecast

Almanac

Astronomy

Aug. 28, 2014 Rise Set
Actual Time 6:39 AM PDT 7:54 PM PDT
Civil Twilight 6:10 AM PDT 8:23 PM PDT
Nautical Twilight 5:36 AM PDT 8:57 PM PDT
Astronomical Twilight 5:00 AM PDT 9:32 PM PDT
Moon 9:38 AM PDT (8/28) 9:20 PM PDT (8/28)
Length of Visible Light 14h 12m
Length of Day
13h 15m
Tomorrow will be 2m 34s shorter.
Waxing Crescent, 12% of the Moon is Illuminated
Aug 29
Waxing Crescent
Sep 2
First Quarter
Sep 8
Full
Sep 15
Last Quarter
Sep 24
New

Yesterday's Extremes

State Highs State Lows

Community

WunderPhotos

Upload Photos

1,748,192 photos uploaded!

Nearby

Snow Depth

Station Depth Elevation
Adin Mountain 1 in 6200 ft
Cedar Pass 0 in 7100 ft
CSS Lab 1 in 6900 ft
Rubicon #2 0 in 7500 ft
Echo Peak 0 in 7800 ft

Earthquake Activity

City Distance Mag. Time & Date
No recent earthquake activity has been reported nearby.
Minimum magnitude displayed is 2.5.

Coastal Water Temperatures

Place Temperature
North Spit, CA 62.1 °F
Crescent City, CA 62.1 °F

Nearby Weather Stations